createdAt,value
2023-02-17T00:00:20.491Z,4.30
2023-02-17T00:03:09.469Z,4.30
2023-02-17T00:05:39.472Z,4.30
2023-02-17T00:08:06.708Z,4.30
2023-02-17T00:10:33.709Z,4.40
2023-02-17T00:13:00.985Z,4.40
2023-02-17T00:15:27.925Z,4.40
2023-02-17T00:17:55.124Z,4.40
2023-02-17T00:20:22.112Z,4.40
2023-02-17T00:22:49.360Z,4.40
2023-02-17T00:25:16.306Z,4.40
2023-02-17T00:27:43.549Z,4.40
2023-02-17T00:30:10.813Z,4.40
2023-02-17T00:32:38.089Z,4.30
2023-02-17T00:35:05.741Z,4.30
2023-02-17T00:37:35.746Z,4.40
2023-02-17T00:40:02.662Z,4.40
2023-02-17T00:42:29.980Z,4.40
2023-02-17T00:44:56.925Z,4.30
2023-02-17T00:47:24.171Z,4.40
2023-02-17T00:49:51.629Z,4.40
2023-02-17T00:52:18.840Z,4.40
2023-02-17T00:54:46.338Z,4.40
2023-02-17T00:57:13.600Z,4.40
2023-02-17T00:59:40.525Z,4.40
2023-02-17T01:02:08.180Z,4.40
2023-02-17T01:04:35.228Z,4.40
2023-02-17T01:07:02.476Z,4.40
2023-02-17T01:09:29.432Z,4.50
2023-02-17T01:11:56.676Z,4.50
2023-02-17T01:14:23.627Z,4.60
2023-02-17T01:16:50.873Z,4.70
2023-02-17T01:19:19.516Z,4.60
2023-02-17T01:21:46.831Z,4.60
2023-02-17T01:24:13.932Z,4.60
2023-02-17T01:26:41.232Z,4.60
2023-02-17T01:29:10.181Z,4.70
2023-02-17T01:31:37.748Z,4.70
2023-02-17T01:34:05.360Z,4.60
2023-02-17T01:36:33.214Z,4.60
2023-02-17T01:39:00.390Z,4.60
2023-02-17T01:41:28.709Z,4.60
2023-02-17T01:44:18.429Z,4.60
2023-02-17T01:46:48.505Z,4.60
2023-02-17T01:49:32.631Z,4.70
2023-02-17T01:52:13.131Z,4.70
2023-02-17T01:54:48.568Z,4.60
2023-02-17T01:57:19.563Z,4.60
2023-02-17T01:59:46.934Z,4.60
2023-02-17T02:02:15.449Z,4.60
2023-02-17T02:04:46.724Z,4.60
2023-02-17T02:07:35.712Z,4.60
2023-02-17T02:10:03.526Z,4.60
2023-02-17T02:12:34.750Z,4.70
2023-02-17T02:15:14.306Z,4.70
2023-02-17T02:18:07.727Z,4.70
2023-02-17T02:20:45.119Z,4.70
2023-02-17T02:23:18.190Z,4.70
2023-02-17T02:26:01.784Z,4.70
2023-02-17T02:29:03.442Z,4.70
2023-02-17T02:32:08.068Z,4.60
2023-02-17T02:35:00.305Z,4.70
2023-02-17T02:37:34.329Z,4.70
2023-02-17T02:40:05.720Z,4.70
2023-02-17T02:42:34.450Z,4.70
2023-02-17T02:45:01.709Z,4.70
2023-02-17T02:47:47.594Z,4.80
2023-02-17T02:50:25.948Z,4.80
2023-02-17T02:53:31.550Z,4.80
2023-02-17T02:56:06.616Z,4.80
2023-02-17T02:58:48.865Z,4.80
2023-02-17T03:01:43.909Z,4.80
2023-02-17T03:04:36.683Z,4.80
2023-02-17T03:07:11.502Z,4.80
2023-02-17T03:09:39.252Z,4.90
2023-02-17T03:12:07.187Z,4.90
2023-02-17T03:14:38.344Z,5.00
2023-02-17T03:17:06.110Z,5.00
2023-02-17T03:19:33.128Z,5.10
2023-02-17T03:22:29.657Z,5.10
2023-02-17T03:24:56.636Z,5.00
2023-02-17T03:27:23.816Z,4.90
2023-02-17T03:29:50.772Z,4.90
2023-02-17T03:32:18.168Z,4.90
2023-02-17T03:34:45.128Z,4.80
2023-02-17T03:37:12.374Z,4.90
2023-02-17T03:39:39.314Z,4.80
2023-02-17T03:42:06.679Z,4.90
2023-02-17T03:44:33.745Z,4.90
2023-02-17T03:47:01.046Z,4.90
2023-02-17T03:49:28.057Z,4.90
2023-02-17T03:51:55.345Z,4.90
2023-02-17T03:54:22.292Z,4.90
2023-02-17T03:56:49.494Z,5.00
2023-02-17T03:59:16.551Z,5.00
2023-02-17T04:01:44.077Z,5.00
2023-02-17T04:04:11.080Z,5.00
2023-02-17T04:06:38.350Z,4.90
2023-02-17T04:09:05.316Z,5.00
2023-02-17T04:11:32.563Z,4.90
2023-02-17T04:13:59.528Z,4.80
2023-02-17T04:16:26.763Z,4.70
2023-02-17T04:18:53.711Z,4.60
2023-02-17T04:21:20.958Z,4.60
2023-02-17T04:23:47.945Z,4.60
2023-02-17T04:26:15.200Z,4.60
2023-02-17T04:28:43.015Z,4.70
2023-02-17T04:31:10.537Z,4.60
2023-02-17T04:33:38.065Z,4.70
2023-02-17T04:36:05.963Z,4.70
2023-02-17T04:38:33.468Z,4.70
2023-02-17T04:41:01.502Z,4.80
2023-02-17T04:43:29.484Z,4.80
2023-02-17T04:45:57.511Z,4.80
2023-02-17T04:48:25.804Z,4.80
2023-02-17T04:50:53.426Z,4.70
2023-02-17T04:53:20.675Z,4.60
2023-02-17T04:55:52.474Z,4.60
2023-02-17T04:58:19.676Z,4.60
2023-02-17T05:00:48.792Z,4.60
2023-02-17T05:03:16.571Z,4.70
2023-02-17T05:05:44.020Z,4.70
2023-02-17T05:08:10.959Z,4.70
2023-02-17T05:10:38.220Z,4.70
2023-02-17T05:13:05.186Z,4.70
2023-02-17T05:15:34.751Z,4.60
2023-02-17T05:18:02.506Z,4.60
2023-02-17T05:20:29.828Z,4.70
2023-02-17T05:22:56.894Z,4.70
2023-02-17T05:25:24.095Z,4.60
2023-02-17T05:27:51.019Z,4.60
2023-02-17T05:30:20.102Z,4.60
2023-02-17T05:32:47.156Z,4.70
2023-02-17T05:35:14.467Z,4.70
2023-02-17T05:37:41.781Z,4.80
2023-02-17T05:40:09.437Z,4.70
2023-02-17T05:42:36.445Z,4.70
2023-02-17T05:45:04.633Z,4.70
2023-02-17T05:47:31.596Z,4.70
2023-02-17T05:49:58.857Z,4.90
2023-02-17T05:52:25.800Z,4.90
2023-02-17T05:54:53.160Z,4.80
2023-02-17T05:57:20.130Z,4.70
2023-02-17T05:59:47.368Z,4.70
2023-02-17T06:02:14.318Z,4.70
2023-02-17T06:04:41.695Z,4.70
2023-02-17T06:07:08.710Z,4.70
2023-02-17T06:09:35.909Z,4.70
2023-02-17T06:12:03.001Z,4.70
2023-02-17T06:14:30.407Z,4.70
2023-02-17T06:16:58.225Z,4.70
2023-02-17T06:19:27.085Z,4.70
2023-02-17T06:21:54.230Z,4.70
2023-02-17T06:24:21.489Z,4.70
2023-02-17T06:26:48.409Z,4.70
2023-02-17T06:29:15.641Z,4.70
2023-02-17T06:31:42.740Z,4.70
2023-02-17T06:34:10.085Z,4.60
2023-02-17T06:36:37.099Z,4.70
2023-02-17T06:39:04.353Z,4.60
2023-02-17T06:41:31.353Z,4.60
2023-02-17T06:43:58.597Z,4.60
2023-02-17T06:46:25.588Z,4.60
2023-02-17T06:48:52.846Z,4.60
2023-02-17T06:51:19.800Z,4.60
2023-02-17T06:53:47.018Z,4.70
2023-02-17T06:56:13.964Z,4.60
2023-02-17T06:58:41.174Z,4.70
2023-02-17T07:01:19.148Z,4.70
2023-02-17T07:03:47.178Z,4.70
2023-02-17T07:06:14.799Z,4.70
2023-02-17T07:08:42.051Z,4.80
2023-02-17T07:11:11.009Z,4.80
2023-02-17T07:13:38.547Z,4.80
2023-02-17T07:16:06.157Z,4.90
2023-02-17T07:18:33.949Z,4.90
2023-02-17T07:21:00.956Z,4.90
2023-02-17T07:23:28.197Z,4.90
2023-02-17T07:25:55.200Z,5.00
2023-02-17T07:28:22.470Z,5.10
2023-02-17T07:30:49.941Z,5.20
2023-02-17T07:33:17.252Z,5.30
2023-02-17T07:35:44.895Z,5.20
2023-02-17T07:38:12.877Z,5.20
2023-02-17T07:40:40.371Z,5.30
2023-02-17T07:43:07.603Z,5.40
2023-02-17T07:45:34.751Z,5.30
2023-02-17T07:48:02.039Z,5.30
2023-02-17T07:50:29.031Z,5.50
2023-02-17T07:52:56.306Z,5.50
2023-02-17T07:55:24.337Z,5.50
2023-02-17T07:57:51.909Z,5.40
2023-02-17T08:00:19.176Z,5.40
2023-02-17T08:02:46.449Z,5.40
2023-02-17T08:05:13.481Z,5.60
2023-02-17T08:07:40.789Z,5.60
2023-02-17T08:10:27.090Z,5.70
2023-02-17T08:13:13.077Z,5.70
2023-02-17T08:15:41.332Z,5.90
2023-02-17T08:18:08.634Z,5.90
2023-02-17T08:20:35.627Z,6.00
2023-02-17T08:23:03.733Z,6.00
2023-02-17T08:25:35.340Z,6.20
2023-02-17T08:28:04.965Z,6.10
2023-02-17T08:30:32.116Z,6.30
2023-02-17T08:32:59.447Z,6.30
2023-02-17T08:35:28.230Z,6.40
2023-02-17T08:37:55.470Z,6.40
2023-02-17T08:40:23.031Z,6.40
2023-02-17T08:42:50.515Z,6.40
2023-02-17T08:45:17.834Z,6.40
2023-02-17T08:47:45.777Z,6.40
2023-02-17T08:50:16.502Z,6.40
2023-02-17T08:52:43.732Z,6.50
2023-02-17T08:55:11.320Z,6.70
2023-02-17T08:57:38.616Z,6.90
2023-02-17T09:00:08.635Z,6.90
2023-02-17T09:02:37.627Z,7.00
2023-02-17T09:05:06.092Z,7.00
2023-02-17T09:07:33.747Z,7.00
2023-02-17T09:10:01.098Z,7.00
2023-02-17T09:12:28.351Z,7.00
2023-02-17T09:14:55.371Z,7.10
2023-02-17T09:17:22.764Z,7.10
2023-02-17T09:19:49.821Z,7.30
2023-02-17T09:22:30.819Z,7.10
2023-02-17T09:24:58.916Z,7.00
2023-02-17T09:27:26.225Z,6.90
2023-02-17T09:29:53.161Z,6.90
2023-02-17T09:32:20.695Z,7.00
2023-02-17T09:34:53.490Z,6.80
2023-02-17T09:37:21.800Z,6.80
2023-02-17T09:39:49.515Z,6.70
2023-02-17T09:42:23.106Z,6.70
2023-02-17T09:45:01.065Z,6.70
2023-02-17T09:47:51.877Z,6.70
2023-02-17T09:50:26.172Z,6.80
2023-02-17T09:53:06.629Z,6.80
2023-02-17T09:55:43.264Z,6.80
2023-02-17T09:58:18.379Z,6.80
2023-02-17T10:00:53.307Z,6.80
2023-02-17T10:03:38.835Z,6.80
2023-02-17T10:06:50.235Z,6.80
2023-02-17T10:09:32.440Z,6.80
2023-02-17T10:12:16.274Z,6.80
2023-02-17T10:14:56.120Z,6.70
2023-02-17T10:17:34.574Z,6.80
2023-02-17T10:20:10.900Z,6.80
2023-02-17T10:22:39.979Z,6.80
2023-02-17T10:25:19.864Z,6.80
2023-02-17T10:27:55.943Z,6.70
2023-02-17T10:30:30.967Z,6.50
2023-02-17T10:33:25.969Z,6.60
2023-02-17T10:36:03.312Z,6.60
2023-02-17T10:38:57.315Z,6.70
2023-02-17T10:41:31.348Z,6.40
2023-02-17T10:43:59.548Z,6.30
2023-02-17T10:46:31.437Z,6.40
2023-02-17T10:48:59.858Z,6.50
2023-02-17T10:51:29.632Z,6.60
2023-02-17T10:54:05.822Z,6.50
2023-02-17T10:56:39.624Z,6.60
2023-02-17T10:59:38.844Z,6.60
2023-02-17T11:02:24.822Z,6.70
2023-02-17T11:04:56.731Z,6.90
2023-02-17T11:07:33.772Z,7.00
2023-02-17T11:10:04.244Z,6.90
2023-02-17T11:12:40.418Z,6.90
2023-02-17T11:15:18.316Z,6.80
2023-02-17T11:17:46.603Z,6.80
2023-02-17T11:20:13.731Z,6.70
2023-02-17T11:23:03.116Z,6.70
2023-02-17T11:25:32.539Z,6.60
2023-02-17T11:28:05.920Z,6.60
2023-02-17T11:30:35.059Z,6.60
2023-02-17T11:33:20.105Z,6.60
2023-02-17T11:35:55.539Z,6.50
2023-02-17T11:38:28.562Z,6.70
2023-02-17T11:41:07.539Z,6.70
2023-02-17T11:43:36.117Z,6.70
2023-02-17T11:46:38.741Z,6.60
2023-02-17T11:49:31.062Z,6.60
2023-02-17T11:52:16.614Z,6.60
2023-02-17T11:54:53.040Z,6.60
2023-02-17T11:57:22.866Z,6.60
2023-02-17T12:00:17.809Z,6.60
2023-02-17T12:02:56.915Z,6.70
2023-02-17T12:05:35.517Z,6.70
2023-02-17T12:08:10.861Z,6.70
2023-02-17T12:10:43.756Z,6.70
2023-02-17T12:13:44.008Z,7.00
2023-02-17T12:16:31.645Z,6.80
2023-02-17T12:19:31.798Z,6.80
2023-02-17T12:22:26.677Z,6.80
2023-02-17T12:25:09.066Z,7.00
2023-02-17T12:28:10.939Z,6.90
2023-02-17T12:31:02.585Z,6.90
2023-02-17T12:33:45.281Z,7.10
2023-02-17T12:36:15.520Z,7.10
2023-02-17T12:38:46.521Z,7.10
2023-02-17T12:41:25.581Z,7.20
2023-02-17T12:44:03.382Z,7.10
2023-02-17T12:46:38.459Z,7.10
2023-02-17T12:49:17.252Z,7.10
2023-02-17T12:52:04.332Z,7.10
2023-02-17T12:54:36.642Z,7.20
2023-02-17T12:57:14.121Z,7.10
2023-02-17T12:59:45.262Z,7.10
2023-02-17T13:02:14.584Z,7.10
2023-02-17T13:04:44.983Z,7.10
2023-02-17T13:07:25.478Z,7.30
2023-02-17T13:09:55.835Z,7.20
2023-02-17T13:12:22.778Z,7.20
2023-02-17T13:14:59.276Z,7.20
2023-02-17T13:17:37.171Z,7.20
2023-02-17T13:20:10.541Z,7.30
2023-02-17T13:22:39.493Z,7.30
2023-02-17T13:25:07.706Z,7.30
2023-02-17T13:27:38.041Z,7.30
2023-02-17T13:30:22.479Z,7.30
2023-02-17T13:33:05.335Z,7.30
2023-02-17T13:35:36.133Z,7.30
2023-02-17T13:38:06.192Z,7.30
2023-02-17T13:40:37.347Z,7.30
2023-02-17T13:43:18.489Z,7.30
2023-02-17T13:46:14.009Z,7.30
2023-02-17T13:48:41.020Z,7.20
2023-02-17T13:51:25.460Z,7.20
2023-02-17T13:53:52.757Z,7.10
2023-02-17T13:56:28.293Z,7.10
2023-02-17T13:59:06.491Z,7.10
2023-02-17T14:01:38.241Z,7.10
2023-02-17T14:04:27.600Z,7.10
2023-02-17T14:06:58.682Z,7.10
2023-02-17T14:09:31.195Z,7.00
2023-02-17T14:12:02.390Z,7.10
2023-02-17T14:14:36.118Z,7.10
2023-02-17T14:17:13.186Z,7.10
2023-02-17T14:19:45.488Z,7.10
2023-02-17T14:22:29.398Z,7.10
2023-02-17T14:25:01.033Z,7.20
2023-02-17T14:27:28.456Z,7.20
2023-02-17T14:29:55.508Z,7.10
2023-02-17T14:32:33.629Z,7.10
2023-02-17T14:35:26.786Z,7.10
2023-02-17T14:37:54.110Z,7.10
2023-02-17T14:40:23.897Z,7.10
2023-02-17T14:42:51.948Z,7.10
2023-02-17T14:45:19.795Z,7.10
2023-02-17T14:47:47.408Z,7.10
2023-02-17T14:50:17.522Z,7.10
2023-02-17T14:52:49.983Z,7.10
2023-02-17T14:55:34.402Z,7.10
2023-02-17T14:58:01.825Z,7.10
2023-02-17T15:00:28.894Z,7.10
2023-02-17T15:02:56.065Z,7.10
2023-02-17T15:05:23.460Z,7.10
2023-02-17T15:07:51.173Z,7.20
2023-02-17T15:10:24.835Z,7.20
2023-02-17T15:12:53.004Z,7.20
2023-02-17T15:15:20.500Z,7.20
2023-02-17T15:17:48.676Z,7.20
2023-02-17T15:20:16.681Z,7.10
2023-02-17T15:22:44.488Z,7.10
2023-02-17T15:25:11.628Z,7.10
2023-02-17T15:27:38.884Z,7.10
2023-02-17T15:30:10.828Z,7.10
2023-02-17T15:32:58.186Z,7.10
2023-02-17T15:35:45.919Z,7.10
2023-02-17T15:38:47.724Z,7.20
2023-02-17T15:41:34.962Z,7.10
2023-02-17T15:44:47.603Z,7.10
2023-02-17T15:47:19.967Z,7.10
2023-02-17T15:50:26.976Z,7.10
2023-02-17T15:53:14.141Z,7.10
2023-02-17T15:56:21.203Z,7.10
2023-02-17T15:59:09.041Z,7.10
2023-02-17T16:02:20.357Z,7.10
2023-02-17T16:05:23.889Z,7.10
2023-02-17T16:08:31.015Z,7.10
2023-02-17T16:11:40.544Z,7.10
2023-02-17T16:14:50.100Z,7.10
2023-02-17T16:17:17.397Z,7.10
2023-02-17T16:20:04.746Z,7.10
2023-02-17T16:23:06.503Z,7.20
2023-02-17T16:26:09.330Z,7.20
2023-02-17T16:28:51.469Z,7.20
2023-02-17T16:31:53.429Z,7.20
2023-02-17T16:35:15.147Z,7.20
2023-02-17T16:38:02.760Z,7.20
2023-02-17T16:40:32.250Z,7.20
2023-02-17T16:43:20.630Z,7.20
2023-02-17T16:46:30.164Z,7.20
2023-02-17T16:49:24.814Z,7.20
2023-02-17T16:52:34.574Z,7.10
2023-02-17T16:55:40.757Z,7.10
2023-02-17T16:58:19.504Z,7.10
2023-02-17T17:01:12.637Z,7.20
2023-02-17T17:03:59.814Z,7.20
2023-02-17T17:07:08.197Z,7.20
2023-02-17T17:10:14.767Z,7.20
2023-02-17T17:13:12.292Z,7.20
2023-02-17T17:15:59.478Z,7.20
2023-02-17T17:19:26.301Z,7.20
2023-02-17T17:22:49.403Z,7.20
2023-02-17T17:25:59.634Z,7.20
2023-02-17T17:28:26.576Z,7.30
2023-02-17T17:31:13.755Z,7.30
2023-02-17T17:33:41.045Z,7.30
2023-02-17T17:36:41.741Z,7.30
2023-02-17T17:39:48.665Z,7.30
2023-02-17T17:43:10.441Z,7.30
2023-02-17T17:46:17.599Z,7.30
2023-02-17T17:49:06.028Z,7.30
2023-02-17T17:51:33.982Z,7.30
2023-02-17T17:54:44.124Z,7.30
2023-02-17T17:57:45.972Z,7.30
2023-02-17T18:00:47.816Z,7.30
2023-02-17T18:03:15.077Z,7.40
2023-02-17T18:06:22.267Z,7.50
2023-02-17T18:09:31.949Z,7.50
2023-02-17T18:12:20.803Z,7.40
2023-02-17T18:15:04.370Z,7.50
2023-02-17T18:18:06.410Z,7.50
2023-02-17T18:21:08.162Z,7.50
2023-02-17T18:24:09.971Z,7.50
2023-02-17T18:27:11.736Z,7.60
2023-02-17T18:30:16.810Z,7.60
2023-02-17T18:32:44.644Z,7.70
2023-02-17T18:35:51.773Z,7.60
2023-02-17T18:38:53.580Z,7.60
2023-02-17T18:42:15.386Z,7.60
2023-02-17T18:58:22.760Z,7.80
2023-02-17T19:00:50.362Z,7.70
2023-02-17T19:03:17.923Z,7.80
2023-02-17T19:05:45.583Z,7.90
2023-02-17T19:08:13.521Z,7.90
2023-02-17T19:10:41.444Z,7.90
2023-02-17T19:13:08.885Z,7.90
2023-02-17T19:15:38.183Z,8.00
2023-02-17T19:18:07.317Z,8.00
2023-02-17T19:20:35.185Z,8.00
2023-02-17T19:23:03.025Z,8.00
2023-02-17T19:25:30.981Z,8.10
2023-02-17T19:27:58.341Z,8.10
2023-02-17T19:30:27.185Z,8.10
2023-02-17T19:32:54.507Z,8.10
2023-02-17T19:35:22.985Z,8.20
2023-02-17T19:37:50.542Z,8.30
2023-02-17T19:40:18.271Z,8.30
2023-02-17T19:42:45.555Z,8.40
2023-02-17T19:45:13.113Z,8.30
2023-02-17T19:47:40.854Z,8.40
2023-02-17T19:50:08.853Z,8.50
2023-02-17T19:52:37.856Z,8.50
2023-02-17T19:55:06.146Z,8.60
2023-02-17T19:57:33.375Z,8.60
2023-02-17T20:00:01.003Z,8.70
2023-02-17T20:02:30.618Z,8.70
2023-02-17T20:05:00.664Z,8.80
2023-02-17T20:07:29.517Z,8.80
2023-02-17T20:09:57.444Z,8.90
2023-02-17T20:12:25.462Z,8.90
2023-02-17T20:14:55.074Z,9.00
2023-02-17T20:17:22.511Z,9.10
2023-02-17T20:19:51.837Z,9.10
2023-02-17T20:22:19.093Z,9.20
2023-02-17T20:24:48.157Z,9.20
2023-02-17T20:27:15.816Z,9.30
2023-02-17T20:29:45.988Z,9.30
2023-02-17T20:32:14.735Z,9.30
2023-02-17T20:34:43.410Z,9.30
2023-02-17T20:37:11.890Z,9.30
2023-02-17T20:39:41.815Z,9.40
2023-02-17T20:42:10.196Z,9.40
2023-02-17T20:44:38.913Z,9.50
2023-02-17T20:47:06.773Z,9.50
2023-02-17T20:49:36.554Z,9.60
2023-02-17T20:52:06.392Z,9.60
2023-02-17T20:54:34.898Z,9.70
2023-02-17T20:57:02.337Z,9.70
2023-02-17T20:59:30.887Z,9.70
2023-02-17T21:01:59.692Z,9.70
2023-02-17T21:04:27.222Z,9.80
2023-02-17T21:06:54.386Z,9.80
2023-02-17T21:09:23.228Z,9.70
2023-02-17T21:11:51.779Z,9.70
2023-02-17T21:14:19.413Z,9.80
2023-02-17T21:16:46.789Z,9.70
2023-02-17T21:19:14.542Z,9.70
2023-02-17T21:21:43.139Z,9.70
2023-02-17T21:24:11.616Z,9.80
2023-02-17T21:26:39.213Z,9.80
2023-02-17T21:29:07.176Z,9.80
2023-02-17T21:31:37.218Z,9.80
2023-02-17T21:34:05.209Z,9.80
2023-02-17T21:36:33.520Z,9.90
2023-02-17T21:39:01.292Z,9.80
2023-02-17T21:41:30.466Z,9.80
2023-02-17T21:44:17.643Z,9.90
2023-02-17T21:46:46.607Z,9.80
2023-02-17T21:49:14.445Z,9.70
2023-02-17T21:51:42.504Z,9.80
2023-02-17T21:54:14.576Z,9.80
2023-02-17T21:56:42.064Z,9.70
2023-02-17T21:59:10.117Z,9.70
2023-02-17T22:01:38.521Z,9.60
2023-02-17T22:04:06.130Z,9.60
2023-02-17T22:06:37.153Z,9.50
2023-02-17T22:09:07.118Z,9.50
2023-02-17T22:11:37.266Z,9.50
2023-02-17T22:14:07.738Z,9.40
2023-02-17T22:16:38.442Z,9.40
2023-02-17T22:19:10.848Z,9.40
2023-02-17T22:21:40.766Z,9.20
2023-02-17T22:24:08.509Z,9.20
2023-02-17T22:26:36.392Z,9.00
2023-02-17T22:29:04.697Z,8.90
2023-02-17T22:31:33.321Z,8.80
2023-02-17T22:34:04.036Z,8.80
2023-02-17T22:36:34.688Z,8.70
2023-02-17T22:39:04.280Z,8.60
2023-02-17T22:41:33.227Z,8.50
2023-02-17T22:44:01.825Z,8.50
2023-02-17T22:46:31.913Z,8.50
2023-02-17T22:49:00.180Z,8.60
2023-02-17T22:51:35.500Z,8.70
2023-02-17T22:54:04.072Z,8.70
2023-02-17T22:56:31.918Z,8.60
2023-02-17T22:59:06.024Z,8.60
2023-02-17T23:01:36.053Z,8.70
2023-02-17T23:04:06.876Z,8.70
2023-02-17T23:06:37.418Z,8.70
2023-02-17T23:09:06.893Z,8.70
2023-02-17T23:11:52.881Z,8.80
2023-02-17T23:14:33.643Z,8.70
2023-02-17T23:17:04.787Z,8.70
2023-02-17T23:19:33.518Z,8.60
2023-02-17T23:22:04.487Z,8.70
2023-02-17T23:24:32.457Z,8.70
2023-02-17T23:27:01.170Z,8.60
2023-02-17T23:29:30.853Z,8.60
2023-02-17T23:31:58.428Z,8.60
2023-02-17T23:34:27.023Z,8.60
2023-02-17T23:36:55.212Z,8.60
2023-02-17T23:39:23.112Z,8.50
2023-02-17T23:41:50.338Z,8.50
2023-02-17T23:44:18.524Z,8.50
2023-02-17T23:46:45.960Z,8.40
2023-02-17T23:49:17.679Z,8.40
2023-02-17T23:51:46.980Z,8.50
2023-02-17T23:54:16.381Z,8.60
2023-02-17T23:56:45.010Z,8.40
2023-02-17T23:59:12.739Z,8.10
